< < Back
Terminal Aerodrome Forecast


Current Version              Previous Versions:   1  2  3  4  5  6  7  8  9  

Terminal Aerodrome Forecast

560
FTUS44 KOHX 300903 AAB
TAFCSV
TAF AMD
KCSV 300903Z 3009/3106 00000KT 4SM BR SCT120
     FM301400 01007KT P6SM SCT250=

Latest METAR

885
SAUS70 KWBC 310356
MTRCSV
METAR KCSV 310353Z AUTO 00000KT 10SM CLR 19/14 A3004 RMK AO2 SLP152
T01940144


USA.gov is the U.S. government's official web portal to all federal, state and local government web resources and services.